PHENX07 NFFN-NCRG
Flight info
| Callsign | PHENX07 |
|---|---|
| Flight time | 2h 58m |
| Altitude | 41000 |
| Route | CHARLI EXORA DCT POPAS G223 ESDOX DCT PALMI DCT NU/N0479F450 G593 ORAGI DCT RG |
| Aircraft | C750/M-SBDE3FGHRWXY/S |
Departure
| Time | 2026-04-23 23:33 |
|---|---|
| Airport | Nadi International Airport (NFFN) |
Arrival
| Time | 2026-04-24 02:31 |
|---|---|
| Airport | Rarotonga International Airport (NCRG) |
| Time | Latitude | Longitude | Altitude | Speed | Heading |
|---|---|---|---|---|---|
| 2026-04-23 23:20 | -17.75459 | 177.44995 | 44 ft | 0 kts | 236° |
| 2026-04-23 23:29 | -17.75471 | 177.44959 | 49 ft | 12 kts | 269° |
| 2026-04-23 23:29 | -17.75556 | 177.44883 | 48 ft | 23 kts | 201° |
| 2026-04-23 23:29 | -17.75576 | 177.44747 | 45 ft | 21 kts | 285° |
| 2026-04-23 23:30 | -17.75544 | 177.44603 | 45 ft | 20 kts | 281° |
| 2026-04-23 23:30 | -17.75506 | 177.44445 | 47 ft | 24 kts | 285° |
| 2026-04-23 23:30 | -17.75465 | 177.44281 | 45 ft | 22 kts | 285° |
| 2026-04-23 23:30 | -17.75425 | 177.44130 | 44 ft | 20 kts | 285° |
| 2026-04-23 23:31 | -17.75392 | 177.43989 | 42 ft | 19 kts | 282° |
| 2026-04-23 23:31 | -17.75362 | 177.43853 | 40 ft | 19 kts | 285° |
| 2026-04-23 23:31 | -17.75328 | 177.43726 | 39 ft | 17 kts | 283° |
| 2026-04-23 23:31 | -17.75279 | 177.43642 | 39 ft | 10 kts | 276° |
| 2026-04-23 23:32 | -17.75298 | 177.43643 | 39 ft | 6 kts | 130° |
| 2026-04-23 23:32 | -17.75332 | 177.43710 | 39 ft | 19 kts | 106° |
| 2026-04-23 23:32 | -17.75444 | 177.44163 | 45 ft | 116 kts | 104° |
| 2026-04-23 23:32 | -17.75678 | 177.45188 | 269 ft | 155 kts | 104° |
| 2026-04-23 23:33 | -17.75979 | 177.46331 | 808 ft | 166 kts | 103° |
| 2026-04-23 23:33 | -17.76217 | 177.47491 | 1476 ft | 163 kts | 104° |
| 2026-04-23 23:33 | -17.76476 | 177.48656 | 2165 ft | 166 kts | 104° |
| 2026-04-23 23:33 | -17.76751 | 177.49844 | 2854 ft | 169 kts | 102° |
| 2026-04-23 23:34 | -17.77028 | 177.51045 | 3504 ft | 177 kts | 101° |
| 2026-04-23 23:34 | -17.76984 | 177.52389 | 3844 ft | 197 kts | 72° |
| 2026-04-23 23:34 | -17.76192 | 177.53639 | 4202 ft | 221 kts | 42° |
| 2026-04-23 23:34 | -17.74682 | 177.54263 | 4553 ft | 253 kts | 5° |
| 2026-04-23 23:35 | -17.72942 | 177.53753 | 4915 ft | 270 kts | 329° |
| 2026-04-23 23:35 | -17.71762 | 177.52205 | 5292 ft | 280 kts | 293° |
| 2026-04-23 23:35 | -17.71620 | 177.50172 | 5676 ft | 286 kts | 258° |
| 2026-04-23 23:35 | -17.72571 | 177.48358 | 6110 ft | 286 kts | 228° |
| 2026-04-23 23:36 | -17.73979 | 177.46878 | 6675 ft | 288 kts | 224° |
| 2026-04-23 23:36 | -17.75293 | 177.45274 | 7148 ft | 294 kts | 239° |
| 2026-04-23 23:36 | -17.75780 | 177.43211 | 7502 ft | 294 kts | 274° |
| 2026-04-23 23:36 | -17.75136 | 177.41243 | 7847 ft | 291 kts | 307° |
| 2026-04-23 23:37 | -17.73574 | 177.39975 | 8221 ft | 285 kts | 340° |
| 2026-04-23 23:37 | -17.71643 | 177.39658 | 8716 ft | 282 kts | 0° |
| 2026-04-23 23:37 | -17.69702 | 177.39983 | 9230 ft | 284 kts | 20° |
| 2026-04-23 23:37 | -17.67998 | 177.41013 | 9751 ft | 285 kts | 40° |
| 2026-04-23 23:38 | -17.66780 | 177.42653 | 10214 ft | 291 kts | 62° |
| 2026-04-23 23:38 | -17.66266 | 177.44747 | 10681 ft | 306 kts | 86° |
| 2026-04-23 23:38 | -17.66522 | 177.47002 | 11254 ft | 315 kts | 99° |
| 2026-04-23 23:38 | -17.66965 | 177.49216 | 11881 ft | 315 kts | 99° |
| 2026-04-23 23:39 | -17.67341 | 177.51505 | 12510 ft | 321 kts | 97° |
| 2026-04-23 23:39 | -17.67659 | 177.53844 | 13162 ft | 327 kts | 96° |
| 2026-04-23 23:39 | -17.68012 | 177.56227 | 13836 ft | 332 kts | 97° |
| 2026-04-23 23:39 | -17.68398 | 177.58636 | 14459 ft | 337 kts | 97° |
| 2026-04-23 23:40 | -17.68773 | 177.61044 | 15091 ft | 340 kts | 97° |
| 2026-04-23 23:40 | -17.69144 | 177.63516 | 15719 ft | 344 kts | 97° |
| 2026-04-23 23:40 | -17.69522 | 177.66010 | 16362 ft | 347 kts | 97° |
| 2026-04-23 23:40 | -17.69908 | 177.68528 | 17034 ft | 350 kts | 97° |
| 2026-04-23 23:41 | -17.70298 | 177.71072 | 17715 ft | 354 kts | 97° |
| 2026-04-23 23:41 | -17.70681 | 177.73599 | 18402 ft | 357 kts | 97° |
| 2026-04-23 23:41 | -17.71074 | 177.76184 | 19016 ft | 360 kts | 97° |
| 2026-04-23 23:41 | -17.71471 | 177.78789 | 19638 ft | 363 kts | 97° |
| 2026-04-23 23:42 | -17.71871 | 177.81426 | 20281 ft | 366 kts | 97° |
| 2026-04-23 23:42 | -17.72273 | 177.84076 | 20934 ft | 369 kts | 97° |
| 2026-04-23 23:42 | -17.72679 | 177.86754 | 21611 ft | 372 kts | 97° |
| 2026-04-23 23:42 | -17.73088 | 177.89454 | 22291 ft | 375 kts | 97° |
| 2026-04-23 23:43 | -17.73494 | 177.92136 | 22995 ft | 378 kts | 97° |
| 2026-04-23 23:43 | -17.73907 | 177.94868 | 23665 ft | 380 kts | 97° |
| 2026-04-23 23:43 | -17.74322 | 177.97622 | 24243 ft | 383 kts | 97° |
| 2026-04-23 23:43 | -17.74741 | 178.00393 | 24828 ft | 385 kts | 97° |
| 2026-04-23 23:44 | -17.75162 | 178.03188 | 25429 ft | 387 kts | 97° |
| 2026-04-23 23:44 | -17.75578 | 178.05949 | 26030 ft | 389 kts | 97° |
| 2026-04-23 23:44 | -17.76002 | 178.08773 | 26642 ft | 391 kts | 97° |
| 2026-04-23 23:44 | -17.76427 | 178.11598 | 27248 ft | 393 kts | 98° |
| 2026-04-23 23:45 | -17.76852 | 178.14430 | 27886 ft | 394 kts | 97° |
| 2026-04-23 23:45 | -17.77279 | 178.17278 | 28521 ft | 395 kts | 97° |
| 2026-04-23 23:45 | -17.77706 | 178.20130 | 29163 ft | 396 kts | 98° |
| 2026-04-23 23:45 | -17.78135 | 178.22993 | 29807 ft | 397 kts | 98° |
| 2026-04-23 23:46 | -17.78559 | 178.25827 | 30375 ft | 398 kts | 98° |
| 2026-04-23 23:46 | -17.78988 | 178.28699 | 30909 ft | 398 kts | 97° |
| 2026-04-23 23:46 | -17.79415 | 178.31567 | 31445 ft | 398 kts | 97° |
| 2026-04-23 23:46 | -17.79845 | 178.34451 | 31973 ft | 398 kts | 97° |
| 2026-04-23 23:47 | -17.80274 | 178.37325 | 32506 ft | 398 kts | 97° |
| 2026-04-23 23:47 | -17.80702 | 178.40205 | 33043 ft | 398 kts | 97° |
| 2026-04-23 23:47 | -17.81128 | 178.43072 | 33575 ft | 398 kts | 97° |
| 2026-04-23 23:47 | -17.81549 | 178.45907 | 34090 ft | 398 kts | 97° |
| 2026-04-23 23:48 | -17.81976 | 178.48789 | 34534 ft | 398 kts | 97° |
| 2026-04-23 23:48 | -17.82402 | 178.51667 | 34979 ft | 399 kts | 97° |
| 2026-04-23 23:48 | -17.82828 | 178.54543 | 35422 ft | 399 kts | 97° |
| 2026-04-23 23:48 | -17.83254 | 178.57429 | 35868 ft | 400 kts | 97° |
| 2026-04-23 23:49 | -17.84108 | 178.63210 | 36737 ft | 401 kts | 97° |
| 2026-04-23 23:49 | -17.84535 | 178.66111 | 37166 ft | 402 kts | 97° |
| 2026-04-23 23:49 | -17.84963 | 178.69018 | 37591 ft | 403 kts | 97° |
| 2026-04-23 23:50 | -17.85391 | 178.71930 | 38012 ft | 404 kts | 97° |
| 2026-04-23 23:50 | -17.85815 | 178.74813 | 38428 ft | 405 kts | 97° |
| 2026-04-23 23:50 | -17.86245 | 178.77744 | 38822 ft | 406 kts | 97° |
| 2026-04-23 23:50 | -17.86675 | 178.80681 | 39166 ft | 408 kts | 97° |
| 2026-04-23 23:51 | -17.87108 | 178.83633 | 39512 ft | 409 kts | 97° |
| 2026-04-23 23:51 | -17.87541 | 178.86597 | 39860 ft | 411 kts | 97° |
| 2026-04-23 23:51 | -17.87974 | 178.89559 | 40200 ft | 412 kts | 97° |
| 2026-04-23 23:51 | -17.88409 | 178.92540 | 40546 ft | 413 kts | 97° |
| 2026-04-23 23:52 | -17.88845 | 178.95532 | 40884 ft | 414 kts | 97° |
| 2026-04-23 23:52 | -17.89284 | 178.98549 | 40974 ft | 423 kts | 97° |
| 2026-04-23 23:52 | -17.90194 | 179.04806 | 40994 ft | 443 kts | 97° |
| 2026-04-23 23:53 | -17.91140 | 179.11297 | 40989 ft | 463 kts | 98° |
| 2026-04-23 23:53 | -17.93078 | 179.17889 | 40991 ft | 482 kts | 111° |
| 2026-04-23 23:54 | -17.95548 | 179.24571 | 40991 ft | 499 kts | 109° |
| 2026-04-23 23:54 | -17.97885 | 179.31582 | 40994 ft | 516 kts | 110° |
| 2026-04-23 23:55 | -18.00439 | 179.38707 | 40995 ft | 531 kts | 110° |
| 2026-04-23 23:55 | -18.02953 | 179.46100 | 40989 ft | 539 kts | 110° |
| 2026-04-23 23:56 | -18.05557 | 179.53501 | 40993 ft | 539 kts | 110° |
| 2026-04-23 23:56 | -18.08105 | 179.60927 | 40994 ft | 540 kts | 110° |
| 2026-04-23 23:57 | -18.10674 | 179.68309 | 40986 ft | 541 kts | 110° |
| 2026-04-23 23:57 | -18.13235 | 179.75755 | 40980 ft | 541 kts | 110° |
| 2026-04-23 23:58 | -18.15377 | 179.81949 | 40982 ft | 540 kts | 110° |
| 2026-04-23 23:58 | -18.18359 | 179.90612 | 40989 ft | 540 kts | 110° |
| 2026-04-23 23:59 | -18.20900 | 179.98022 | 40982 ft | 541 kts | 109° |
| 2026-04-23 23:59 | -18.22227 | -179.95565 | 40981 ft | 539 kts | 96° |
| 2026-04-24 00:00 | -18.22887 | -179.87702 | 40993 ft | 539 kts | 95° |
| 2026-04-24 00:00 | -18.23887 | -179.79873 | 40993 ft | 539 kts | 97° |
| 2026-04-24 00:01 | -18.24690 | -179.72013 | 40993 ft | 539 kts | 95° |
| 2026-04-24 00:01 | -18.25587 | -179.64229 | 40993 ft | 539 kts | 96° |
| 2026-04-24 00:02 | -18.26439 | -179.56387 | 40989 ft | 539 kts | 95° |
| 2026-04-24 00:02 | -18.27305 | -179.48533 | 40989 ft | 539 kts | 96° |
| 2026-04-24 00:03 | -18.28168 | -179.40683 | 40989 ft | 539 kts | 95° |
| 2026-04-24 00:03 | -18.29014 | -179.32880 | 40990 ft | 539 kts | 96° |
| 2026-04-24 00:04 | -18.29873 | -179.25023 | 40990 ft | 539 kts | 95° |
| 2026-04-24 00:04 | -18.30718 | -179.17182 | 40987 ft | 538 kts | 96° |
| 2026-04-24 00:05 | -18.31566 | -179.09351 | 40986 ft | 538 kts | 96° |
| 2026-04-24 00:05 | -18.32405 | -179.01515 | 40987 ft | 539 kts | 96° |
| 2026-04-24 00:06 | -18.33245 | -178.93680 | 40987 ft | 538 kts | 96° |
| 2026-04-24 00:06 | -18.34074 | -178.85886 | 40987 ft | 538 kts | 96° |
| 2026-04-24 00:07 | -18.34908 | -178.78041 | 40988 ft | 537 kts | 96° |
| 2026-04-24 00:07 | -18.35729 | -178.70276 | 40983 ft | 537 kts | 96° |
| 2026-04-24 00:08 | -18.36553 | -178.62453 | 40985 ft | 537 kts | 96° |
| 2026-04-24 00:08 | -18.37373 | -178.54638 | 40986 ft | 537 kts | 96° |
| 2026-04-24 00:09 | -18.38191 | -178.46810 | 40986 ft | 537 kts | 96° |
| 2026-04-24 00:09 | -18.39001 | -178.39028 | 40985 ft | 538 kts | 96° |
| 2026-04-24 00:10 | -18.39813 | -178.31190 | 40987 ft | 537 kts | 96° |
| 2026-04-24 00:10 | -18.40623 | -178.23348 | 40987 ft | 538 kts | 96° |
| 2026-04-24 00:11 | -18.41420 | -178.15518 | 40990 ft | 538 kts | 96° |
| 2026-04-24 00:11 | -18.42217 | -178.07702 | 40989 ft | 539 kts | 96° |
| 2026-04-24 00:12 | -18.43014 | -177.99825 | 40985 ft | 541 kts | 96° |
| 2026-04-24 00:12 | -18.43805 | -177.91995 | 40986 ft | 540 kts | 96° |
| 2026-04-24 00:13 | -18.44597 | -177.84112 | 40983 ft | 540 kts | 95° |
| 2026-04-24 00:13 | -18.45385 | -177.76239 | 40984 ft | 540 kts | 95° |
| 2026-04-24 00:14 | -18.46167 | -177.68396 | 40983 ft | 540 kts | 96° |
| 2026-04-24 00:14 | -18.46950 | -177.60503 | 40985 ft | 540 kts | 96° |
| 2026-04-24 00:15 | -18.47729 | -177.52612 | 40984 ft | 540 kts | 96° |
| 2026-04-24 00:15 | -18.48504 | -177.44787 | 40984 ft | 540 kts | 96° |
| 2026-04-24 00:16 | -18.49278 | -177.36893 | 40986 ft | 540 kts | 95° |
| 2026-04-24 00:16 | -18.50041 | -177.29018 | 40984 ft | 540 kts | 96° |
| 2026-04-24 00:17 | -18.50807 | -177.21164 | 40984 ft | 540 kts | 96° |
| 2026-04-24 00:17 | -18.51563 | -177.13317 | 40983 ft | 540 kts | 96° |
| 2026-04-24 00:18 | -18.52317 | -177.05498 | 40973 ft | 519 kts | 96° |
| 2026-04-24 00:18 | -18.52671 | -177.01790 | 40966 ft | 496 kts | 96° |
| 2026-04-24 00:18 | -18.53009 | -176.98234 | 40956 ft | 479 kts | 96° |
| 2026-04-24 00:19 | -18.53673 | -176.91329 | 41172 ft | 478 kts | 96° |
| 2026-04-24 00:19 | -18.54009 | -176.87833 | 41383 ft | 481 kts | 96° |
| 2026-04-24 00:19 | -18.54342 | -176.84325 | 41609 ft | 481 kts | 96° |
| 2026-04-24 00:20 | -18.54675 | -176.80813 | 41836 ft | 481 kts | 96° |
| 2026-04-24 00:20 | -18.55010 | -176.77296 | 42050 ft | 480 kts | 96° |
| 2026-04-24 00:20 | -18.55343 | -176.73794 | 42256 ft | 480 kts | 96° |
| 2026-04-24 00:20 | -18.55670 | -176.70322 | 42452 ft | 479 kts | 96° |
| 2026-04-24 00:21 | -18.55999 | -176.66832 | 42644 ft | 478 kts | 96° |
| 2026-04-24 00:21 | -18.56328 | -176.63342 | 42827 ft | 478 kts | 96° |
| 2026-04-24 00:21 | -18.56656 | -176.59861 | 43003 ft | 477 kts | 96° |
| 2026-04-24 00:21 | -18.56982 | -176.56379 | 43174 ft | 477 kts | 96° |
| 2026-04-24 00:22 | -18.57308 | -176.52896 | 43341 ft | 476 kts | 96° |
| 2026-04-24 00:22 | -18.57632 | -176.49432 | 43501 ft | 475 kts | 96° |
| 2026-04-24 00:22 | -18.57955 | -176.45973 | 43653 ft | 474 kts | 96° |
| 2026-04-24 00:22 | -18.58276 | -176.42518 | 43802 ft | 474 kts | 96° |
| 2026-04-24 00:23 | -18.58597 | -176.39060 | 43943 ft | 473 kts | 96° |
| 2026-04-24 00:23 | -18.58914 | -176.35648 | 44078 ft | 473 kts | 96° |
| 2026-04-24 00:23 | -18.59233 | -176.32200 | 44211 ft | 473 kts | 96° |
| 2026-04-24 00:23 | -18.59552 | -176.28743 | 44339 ft | 472 kts | 96° |
| 2026-04-24 00:24 | -18.59870 | -176.25284 | 44467 ft | 472 kts | 96° |
| 2026-04-24 00:24 | -18.60188 | -176.21834 | 44585 ft | 472 kts | 96° |
| 2026-04-24 00:24 | -18.60504 | -176.18391 | 44688 ft | 471 kts | 96° |
| 2026-04-24 00:24 | -18.60815 | -176.14990 | 44772 ft | 471 kts | 96° |
| 2026-04-24 00:25 | -18.61444 | -176.08109 | 44937 ft | 472 kts | 96° |
| 2026-04-24 00:25 | -18.62074 | -176.01182 | 44980 ft | 482 kts | 96° |
| 2026-04-24 00:26 | -18.62718 | -175.94067 | 44977 ft | 493 kts | 96° |
| 2026-04-24 00:26 | -18.63375 | -175.86789 | 44980 ft | 503 kts | 96° |
| 2026-04-24 00:27 | -18.64041 | -175.79366 | 44983 ft | 512 kts | 96° |
| 2026-04-24 00:27 | -18.64710 | -175.71886 | 44980 ft | 515 kts | 96° |
| 2026-04-24 00:28 | -18.65379 | -175.64367 | 44978 ft | 514 kts | 96° |
| 2026-04-24 00:28 | -18.66046 | -175.56838 | 44980 ft | 515 kts | 96° |
| 2026-04-24 00:29 | -18.66705 | -175.49359 | 44976 ft | 515 kts | 96° |
| 2026-04-24 00:29 | -18.67366 | -175.41827 | 44973 ft | 515 kts | 96° |
| 2026-04-24 00:30 | -18.68024 | -175.34299 | 44975 ft | 516 kts | 96° |
| 2026-04-24 00:30 | -18.68677 | -175.26792 | 44979 ft | 516 kts | 96° |
| 2026-04-24 00:31 | -18.69330 | -175.19249 | 44977 ft | 516 kts | 96° |
| 2026-04-24 00:31 | -18.69980 | -175.11699 | 44977 ft | 516 kts | 96° |
| 2026-04-24 00:32 | -18.70623 | -175.04195 | 44973 ft | 516 kts | 96° |
| 2026-04-24 00:32 | -18.71266 | -174.96662 | 44976 ft | 515 kts | 96° |
| 2026-04-24 00:33 | -18.71910 | -174.89113 | 44979 ft | 520 kts | 96° |
| 2026-04-24 00:33 | -18.72554 | -174.81505 | 44972 ft | 519 kts | 96° |
| 2026-04-24 00:34 | -18.73194 | -174.73919 | 44971 ft | 519 kts | 96° |
| 2026-04-24 00:34 | -18.73826 | -174.66377 | 44974 ft | 519 kts | 96° |
| 2026-04-24 00:35 | -18.74460 | -174.58786 | 44972 ft | 519 kts | 96° |
| 2026-04-24 00:35 | -18.75091 | -174.51194 | 44972 ft | 519 kts | 96° |
| 2026-04-24 00:36 | -18.75718 | -174.43604 | 44975 ft | 518 kts | 96° |
| 2026-04-24 00:36 | -18.76340 | -174.36050 | 44975 ft | 518 kts | 96° |
| 2026-04-24 00:37 | -18.76961 | -174.28463 | 44976 ft | 518 kts | 96° |
| 2026-04-24 00:37 | -18.77573 | -174.20941 | 44978 ft | 517 kts | 96° |
| 2026-04-24 00:38 | -18.78188 | -174.13362 | 44980 ft | 517 kts | 96° |
| 2026-04-24 00:38 | -18.78798 | -174.05792 | 44981 ft | 517 kts | 96° |
| 2026-04-24 00:39 | -18.79405 | -173.98231 | 44978 ft | 516 kts | 96° |
| 2026-04-24 00:39 | -18.80003 | -173.90734 | 44975 ft | 516 kts | 96° |
| 2026-04-24 00:40 | -18.80601 | -173.83199 | 44974 ft | 514 kts | 96° |
| 2026-04-24 00:40 | -18.81196 | -173.75669 | 44973 ft | 514 kts | 96° |
| 2026-04-24 00:41 | -18.81785 | -173.68182 | 44971 ft | 514 kts | 96° |
| 2026-04-24 00:41 | -18.82374 | -173.60648 | 44973 ft | 516 kts | 95° |
| 2026-04-24 00:42 | -18.82962 | -173.53087 | 44976 ft | 516 kts | 95° |
| 2026-04-24 00:42 | -18.83545 | -173.45547 | 44972 ft | 514 kts | 95° |
| 2026-04-24 00:43 | -18.84125 | -173.38015 | 44973 ft | 515 kts | 95° |
| 2026-04-24 00:43 | -18.84699 | -173.30517 | 44974 ft | 515 kts | 95° |
| 2026-04-24 00:44 | -18.85274 | -173.22973 | 44965 ft | 514 kts | 95° |
| 2026-04-24 00:44 | -18.85846 | -173.15421 | 44968 ft | 515 kts | 95° |
| 2026-04-24 00:45 | -18.86408 | -173.07949 | 44969 ft | 513 kts | 95° |
| 2026-04-24 00:45 | -18.86972 | -173.00434 | 44968 ft | 513 kts | 95° |
| 2026-04-24 00:46 | -18.87532 | -172.92912 | 44967 ft | 513 kts | 95° |
| 2026-04-24 00:46 | -18.88087 | -172.85430 | 44966 ft | 513 kts | 95° |
| 2026-04-24 00:47 | -18.88643 | -172.77895 | 44967 ft | 513 kts | 95° |
| 2026-04-24 00:47 | -18.89100 | -172.71650 | 44965 ft | 510 kts | 95° |
| 2026-04-24 00:48 | -18.89647 | -172.64158 | 44966 ft | 512 kts | 95° |
| 2026-04-24 00:48 | -18.90191 | -172.56661 | 44966 ft | 512 kts | 95° |
| 2026-04-24 00:49 | -18.90730 | -172.49200 | 44964 ft | 511 kts | 95° |
| 2026-04-24 00:49 | -18.91269 | -172.41690 | 44964 ft | 511 kts | 95° |
| 2026-04-24 00:50 | -18.91800 | -172.34248 | 44965 ft | 509 kts | 95° |
| 2026-04-24 00:50 | -18.92330 | -172.26772 | 44964 ft | 510 kts | 95° |
| 2026-04-24 00:51 | -18.92857 | -172.19298 | 44968 ft | 510 kts | 95° |
| 2026-04-24 00:51 | -18.93379 | -172.11858 | 44966 ft | 510 kts | 95° |
| 2026-04-24 00:52 | -18.93902 | -172.04364 | 44961 ft | 510 kts | 95° |
| 2026-04-24 00:52 | -18.94420 | -171.96894 | 44962 ft | 510 kts | 95° |
| 2026-04-24 00:53 | -18.94935 | -171.89429 | 44964 ft | 515 kts | 95° |
| 2026-04-24 00:53 | -18.95453 | -171.81862 | 44965 ft | 514 kts | 95° |
| 2026-04-24 00:54 | -18.95967 | -171.74321 | 44964 ft | 514 kts | 95° |
| 2026-04-24 00:54 | -18.96475 | -171.66811 | 44964 ft | 514 kts | 95° |
| 2026-04-24 00:55 | -18.96982 | -171.59280 | 44967 ft | 512 kts | 95° |
| 2026-04-24 00:55 | -18.97482 | -171.51806 | 44969 ft | 513 kts | 95° |
| 2026-04-24 00:56 | -18.97982 | -171.44284 | 44967 ft | 513 kts | 95° |
| 2026-04-24 00:56 | -18.98479 | -171.36756 | 44968 ft | 513 kts | 95° |
| 2026-04-24 00:57 | -18.98973 | -171.29230 | 44961 ft | 513 kts | 95° |
| 2026-04-24 00:58 | -18.99705 | -171.18003 | 44960 ft | 512 kts | 95° |
| 2026-04-24 00:58 | -19.00191 | -171.10488 | 44961 ft | 512 kts | 95° |
| 2026-04-24 00:59 | -19.00674 | -171.02974 | 44961 ft | 512 kts | 95° |
| 2026-04-24 00:59 | -19.01152 | -170.95472 | 44963 ft | 512 kts | 95° |
| 2026-04-24 01:00 | -19.01626 | -170.88014 | 44962 ft | 511 kts | 95° |
| 2026-04-24 01:00 | -19.02099 | -170.80495 | 44961 ft | 511 kts | 95° |
| 2026-04-24 01:01 | -19.02569 | -170.72987 | 44964 ft | 511 kts | 95° |
| 2026-04-24 01:01 | -19.03035 | -170.65506 | 44965 ft | 512 kts | 95° |
| 2026-04-24 01:02 | -19.03501 | -170.57958 | 44966 ft | 513 kts | 95° |
| 2026-04-24 01:02 | -19.03961 | -170.50479 | 44966 ft | 513 kts | 95° |
| 2026-04-24 01:03 | -19.04420 | -170.42944 | 44966 ft | 513 kts | 95° |
| 2026-04-24 01:03 | -19.04874 | -170.35444 | 44965 ft | 513 kts | 95° |
| 2026-04-24 01:04 | -19.05329 | -170.27896 | 44967 ft | 513 kts | 95° |
| 2026-04-24 01:04 | -19.05779 | -170.20359 | 44964 ft | 513 kts | 95° |
| 2026-04-24 01:05 | -19.06223 | -170.12885 | 44960 ft | 512 kts | 95° |
| 2026-04-24 01:05 | -19.06667 | -170.05349 | 44959 ft | 512 kts | 95° |
| 2026-04-24 01:06 | -19.07107 | -169.97830 | 44960 ft | 512 kts | 95° |
| 2026-04-24 01:06 | -19.07734 | -169.90322 | 44938 ft | 511 kts | 102° |
| 2026-04-24 01:07 | -19.09512 | -169.83118 | 44960 ft | 510 kts | 107° |
| 2026-04-24 01:07 | -19.11256 | -169.75828 | 44959 ft | 509 kts | 105° |
| 2026-04-24 01:08 | -19.12989 | -169.68564 | 44966 ft | 510 kts | 107° |
| 2026-04-24 01:08 | -19.14749 | -169.61292 | 44965 ft | 510 kts | 105° |
| 2026-04-24 01:09 | -19.16461 | -169.54057 | 44971 ft | 510 kts | 106° |
| 2026-04-24 01:09 | -19.18225 | -169.46732 | 44966 ft | 512 kts | 105° |
| 2026-04-24 01:10 | -19.19954 | -169.39425 | 44962 ft | 512 kts | 106° |
| 2026-04-24 01:10 | -19.21691 | -169.32158 | 44965 ft | 512 kts | 105° |
| 2026-04-24 01:11 | -19.23421 | -169.24847 | 44960 ft | 512 kts | 106° |
| 2026-04-24 01:11 | -19.25160 | -169.17524 | 44960 ft | 512 kts | 105° |
| 2026-04-24 01:12 | -19.26878 | -169.10248 | 44960 ft | 512 kts | 105° |
| 2026-04-24 01:12 | -19.28607 | -169.02930 | 44961 ft | 511 kts | 105° |
| 2026-04-24 01:13 | -19.30325 | -168.95633 | 44960 ft | 511 kts | 105° |
| 2026-04-24 01:13 | -19.32034 | -168.88367 | 44961 ft | 510 kts | 105° |
| 2026-04-24 01:14 | -19.33748 | -168.81063 | 44965 ft | 510 kts | 105° |
| 2026-04-24 01:14 | -19.35460 | -168.73754 | 44964 ft | 511 kts | 105° |
| 2026-04-24 01:15 | -19.37161 | -168.66479 | 44957 ft | 510 kts | 105° |
| 2026-04-24 01:15 | -19.38862 | -168.59189 | 44957 ft | 509 kts | 105° |
| 2026-04-24 01:16 | -19.40560 | -168.51898 | 44958 ft | 509 kts | 105° |
| 2026-04-24 01:16 | -19.42254 | -168.44610 | 44957 ft | 509 kts | 105° |
| 2026-04-24 01:17 | -19.43943 | -168.37335 | 44963 ft | 513 kts | 105° |
| 2026-04-24 01:17 | -19.45641 | -168.29997 | 44965 ft | 512 kts | 105° |
| 2026-04-24 01:18 | -19.47337 | -168.22663 | 44964 ft | 512 kts | 105° |
| 2026-04-24 01:18 | -19.49027 | -168.15333 | 44964 ft | 512 kts | 105° |
| 2026-04-24 01:19 | -19.50708 | -168.08035 | 44964 ft | 512 kts | 105° |
| 2026-04-24 01:19 | -19.52395 | -168.00691 | 44964 ft | 512 kts | 105° |
| 2026-04-24 01:20 | -19.54079 | -167.93348 | 44965 ft | 511 kts | 105° |
| 2026-04-24 01:20 | -19.55744 | -167.86072 | 44965 ft | 511 kts | 105° |
| 2026-04-24 01:21 | -19.57420 | -167.78737 | 44966 ft | 511 kts | 105° |
| 2026-04-24 01:21 | -19.59091 | -167.71406 | 44968 ft | 511 kts | 105° |
| 2026-04-24 01:22 | -19.60749 | -167.64116 | 44967 ft | 511 kts | 105° |
| 2026-04-24 01:22 | -19.62415 | -167.56780 | 44969 ft | 510 kts | 105° |
| 2026-04-24 01:23 | -19.64074 | -167.49460 | 44970 ft | 510 kts | 105° |
| 2026-04-24 01:23 | -19.65732 | -167.42130 | 44970 ft | 510 kts | 105° |
| 2026-04-24 01:24 | -19.67378 | -167.34837 | 44970 ft | 510 kts | 105° |
| 2026-04-24 01:24 | -19.69032 | -167.27495 | 44965 ft | 512 kts | 105° |
| 2026-04-24 01:25 | -19.70685 | -167.20137 | 44965 ft | 513 kts | 105° |
| 2026-04-24 01:25 | -19.72334 | -167.12789 | 44970 ft | 513 kts | 105° |
| 2026-04-24 01:26 | -19.73985 | -167.05416 | 44970 ft | 513 kts | 105° |
| 2026-04-24 01:26 | -19.75634 | -166.98036 | 44969 ft | 513 kts | 105° |
| 2026-04-24 01:27 | -19.77278 | -166.90662 | 44969 ft | 513 kts | 105° |
| 2026-04-24 01:27 | -19.78912 | -166.83322 | 44967 ft | 513 kts | 105° |
| 2026-04-24 01:28 | -19.80549 | -166.75950 | 44966 ft | 513 kts | 105° |
| 2026-04-24 01:28 | -19.82185 | -166.68565 | 44967 ft | 513 kts | 105° |
| 2026-04-24 01:29 | -19.83818 | -166.61181 | 44970 ft | 513 kts | 105° |
| 2026-04-24 01:29 | -19.85436 | -166.53853 | 44970 ft | 513 kts | 105° |
| 2026-04-24 01:30 | -19.87060 | -166.46479 | 44972 ft | 513 kts | 105° |
| 2026-04-24 01:30 | -19.88687 | -166.39074 | 44972 ft | 513 kts | 105° |
| 2026-04-24 01:31 | -19.90311 | -166.31672 | 44976 ft | 513 kts | 105° |
| 2026-04-24 01:31 | -19.91920 | -166.24320 | 44975 ft | 513 kts | 105° |
| 2026-04-24 01:32 | -19.93535 | -166.16926 | 44974 ft | 514 kts | 105° |
| 2026-04-24 01:32 | -19.95140 | -166.09564 | 44974 ft | 514 kts | 105° |
| 2026-04-24 01:33 | -19.96751 | -166.02156 | 44971 ft | 514 kts | 105° |
| 2026-04-24 01:33 | -19.98360 | -165.94742 | 44971 ft | 514 kts | 105° |
| 2026-04-24 01:34 | -19.99696 | -165.88575 | 44972 ft | 514 kts | 105° |
| 2026-04-24 01:34 | -20.01298 | -165.81165 | 44972 ft | 514 kts | 105° |
| 2026-04-24 01:35 | -20.02900 | -165.73743 | 44978 ft | 514 kts | 105° |
| 2026-04-24 01:35 | -20.04490 | -165.66358 | 44978 ft | 514 kts | 105° |
| 2026-04-24 01:36 | -20.06082 | -165.58944 | 44975 ft | 514 kts | 105° |
| 2026-04-24 01:36 | -20.07671 | -165.51534 | 44975 ft | 514 kts | 105° |
| 2026-04-24 01:37 | -20.09259 | -165.44110 | 44976 ft | 514 kts | 105° |
| 2026-04-24 01:37 | -20.10846 | -165.36676 | 44975 ft | 515 kts | 105° |
| 2026-04-24 01:38 | -20.12418 | -165.29293 | 44978 ft | 514 kts | 105° |
| 2026-04-24 01:38 | -20.13999 | -165.21856 | 44978 ft | 515 kts | 105° |
| 2026-04-24 01:39 | -20.15575 | -165.14420 | 44971 ft | 515 kts | 105° |
| 2026-04-24 01:39 | -20.17152 | -165.06969 | 44974 ft | 515 kts | 105° |
| 2026-04-24 01:40 | -20.18717 | -164.99555 | 44968 ft | 516 kts | 105° |
| 2026-04-24 01:40 | -20.20364 | -164.92127 | 44970 ft | 515 kts | 106° |
| 2026-04-24 01:41 | -20.22009 | -164.84694 | 44976 ft | 515 kts | 105° |
| 2026-04-24 01:41 | -20.23640 | -164.77264 | 44973 ft | 515 kts | 106° |
| 2026-04-24 01:42 | -20.25270 | -164.69871 | 44976 ft | 515 kts | 105° |
| 2026-04-24 01:42 | -20.26901 | -164.62415 | 44978 ft | 515 kts | 106° |
| 2026-04-24 01:43 | -20.28533 | -164.54973 | 44973 ft | 515 kts | 105° |
| 2026-04-24 01:43 | -20.30145 | -164.47580 | 44974 ft | 515 kts | 105° |
| 2026-04-24 01:44 | -20.31771 | -164.40129 | 44971 ft | 515 kts | 105° |
| 2026-04-24 01:44 | -20.33390 | -164.32680 | 44972 ft | 516 kts | 106° |
| 2026-04-24 01:45 | -20.35008 | -164.25227 | 44973 ft | 516 kts | 106° |
| 2026-04-24 01:45 | -20.36622 | -164.17769 | 44971 ft | 516 kts | 105° |
| 2026-04-24 01:46 | -20.38226 | -164.10348 | 44972 ft | 516 kts | 105° |
| 2026-04-24 01:46 | -20.39836 | -164.02879 | 44974 ft | 516 kts | 105° |
| 2026-04-24 01:47 | -20.41440 | -163.95425 | 44969 ft | 517 kts | 105° |
| 2026-04-24 01:47 | -20.43044 | -163.87952 | 44966 ft | 517 kts | 105° |
| 2026-04-24 01:48 | -20.44649 | -163.80457 | 44965 ft | 517 kts | 105° |
| 2026-04-24 01:48 | -20.46238 | -163.73023 | 44966 ft | 517 kts | 105° |
| 2026-04-24 01:49 | -20.47832 | -163.65545 | 44966 ft | 517 kts | 105° |
| 2026-04-24 01:49 | -20.49431 | -163.58034 | 44969 ft | 518 kts | 105° |
| 2026-04-24 01:50 | -20.51016 | -163.50565 | 44973 ft | 518 kts | 105° |
| 2026-04-24 01:50 | -20.52606 | -163.43060 | 44965 ft | 518 kts | 105° |
| 2026-04-24 01:51 | -20.54182 | -163.35601 | 44969 ft | 518 kts | 105° |
| 2026-04-24 01:51 | -20.55768 | -163.28083 | 44974 ft | 519 kts | 105° |
| 2026-04-24 01:52 | -20.57343 | -163.20595 | 44973 ft | 519 kts | 105° |
| 2026-04-24 01:52 | -20.58924 | -163.13062 | 44972 ft | 519 kts | 105° |
| 2026-04-24 01:53 | -20.60500 | -163.05539 | 44971 ft | 519 kts | 105° |
| 2026-04-24 01:53 | -20.62073 | -162.98014 | 44972 ft | 519 kts | 105° |
| 2026-04-24 01:54 | -20.63632 | -162.90532 | 44965 ft | 518 kts | 105° |
| 2026-04-24 01:54 | -20.65196 | -162.83016 | 44963 ft | 518 kts | 105° |
| 2026-04-24 01:55 | -20.66754 | -162.75509 | 44964 ft | 518 kts | 105° |
| 2026-04-24 01:55 | -20.68311 | -162.67987 | 44957 ft | 518 kts | 105° |
| 2026-04-24 01:56 | -20.69861 | -162.60488 | 44957 ft | 518 kts | 105° |
| 2026-04-24 01:56 | -20.71414 | -162.52951 | 44963 ft | 518 kts | 105° |
| 2026-04-24 01:57 | -20.72957 | -162.45449 | 44974 ft | 518 kts | 105° |
| 2026-04-24 01:57 | -20.73066 | -162.44919 | 44964 ft | 518 kts | 105° |
| 2026-04-24 02:03 | -20.73803 | -162.41313 | 44964 ft | 520 kts | 105° |
| 2026-04-24 02:04 | -20.75336 | -162.33824 | 44793 ft | 513 kts | 105° |
| 2026-04-24 02:04 | -20.76097 | -162.30122 | 44023 ft | 505 kts | 105° |
| 2026-04-24 02:04 | -20.76840 | -162.26480 | 43365 ft | 494 kts | 105° |
| 2026-04-24 02:05 | -20.77563 | -162.22929 | 42719 ft | 485 kts | 105° |
| 2026-04-24 02:05 | -20.78274 | -162.19447 | 42089 ft | 475 kts | 105° |
| 2026-04-24 02:05 | -20.78974 | -162.16018 | 41467 ft | 467 kts | 105° |
| 2026-04-24 02:05 | -20.79651 | -162.12687 | 40869 ft | 461 kts | 106° |
| 2026-04-24 02:06 | -20.80328 | -162.09355 | 40266 ft | 457 kts | 106° |
| 2026-04-24 02:06 | -20.81003 | -162.06037 | 39670 ft | 457 kts | 106° |
| 2026-04-24 02:06 | -20.81682 | -162.02697 | 39072 ft | 463 kts | 106° |
| 2026-04-24 02:06 | -20.82374 | -161.99292 | 38421 ft | 472 kts | 105° |
| 2026-04-24 02:07 | -20.83068 | -161.95852 | 37782 ft | 473 kts | 105° |
| 2026-04-24 02:07 | -20.83768 | -161.92383 | 37153 ft | 480 kts | 105° |
| 2026-04-24 02:07 | -20.84471 | -161.88905 | 36523 ft | 479 kts | 105° |
| 2026-04-24 02:07 | -20.85174 | -161.85423 | 35892 ft | 480 kts | 105° |
| 2026-04-24 02:08 | -20.85875 | -161.81938 | 35264 ft | 479 kts | 104° |
| 2026-04-24 02:08 | -20.86567 | -161.78499 | 34635 ft | 479 kts | 104° |
| 2026-04-24 02:08 | -20.87276 | -161.74980 | 33997 ft | 487 kts | 104° |
| 2026-04-24 02:08 | -20.87989 | -161.71430 | 33318 ft | 487 kts | 104° |
| 2026-04-24 02:09 | -20.88696 | -161.67898 | 32675 ft | 486 kts | 104° |
| 2026-04-24 02:09 | -20.89412 | -161.64326 | 32032 ft | 492 kts | 104° |
| 2026-04-24 02:09 | -20.90122 | -161.60781 | 31389 ft | 490 kts | 104° |
| 2026-04-24 02:09 | -20.90831 | -161.57224 | 30751 ft | 486 kts | 104° |
| 2026-04-24 02:10 | -20.91538 | -161.53688 | 30109 ft | 486 kts | 104° |
| 2026-04-24 02:10 | -20.92244 | -161.50150 | 29425 ft | 485 kts | 104° |
| 2026-04-24 02:10 | -20.92947 | -161.46621 | 28785 ft | 483 kts | 104° |
| 2026-04-24 02:10 | -20.93641 | -161.43128 | 28151 ft | 476 kts | 104° |
| 2026-04-24 02:11 | -20.94317 | -161.39725 | 27534 ft | 470 kts | 104° |
| 2026-04-24 02:11 | -20.94994 | -161.36320 | 26919 ft | 467 kts | 104° |
| 2026-04-24 02:11 | -20.95672 | -161.32908 | 26301 ft | 466 kts | 104° |
| 2026-04-24 02:11 | -20.96348 | -161.29496 | 25688 ft | 467 kts | 104° |
| 2026-04-24 02:12 | -20.97017 | -161.26113 | 25074 ft | 461 kts | 104° |
| 2026-04-24 02:12 | -20.97664 | -161.22831 | 24479 ft | 454 kts | 104° |
| 2026-04-24 02:12 | -20.98319 | -161.19526 | 23881 ft | 455 kts | 104° |
| 2026-04-24 02:12 | -20.98969 | -161.16233 | 23241 ft | 447 kts | 104° |
| 2026-04-24 02:13 | -20.99601 | -161.13014 | 22641 ft | 437 kts | 104° |
| 2026-04-24 02:13 | -21.00224 | -161.09849 | 22075 ft | 431 kts | 104° |
| 2026-04-24 02:13 | -21.00839 | -161.06732 | 21510 ft | 424 kts | 104° |
| 2026-04-24 02:13 | -21.01446 | -161.03646 | 20952 ft | 420 kts | 104° |
| 2026-04-24 02:14 | -21.02033 | -161.00651 | 20410 ft | 412 kts | 104° |
| 2026-04-24 02:14 | -21.02620 | -160.97655 | 19869 ft | 409 kts | 104° |
| 2026-04-24 02:14 | -21.03205 | -160.94677 | 19333 ft | 406 kts | 104° |
| 2026-04-24 02:14 | -21.03784 | -160.91719 | 18800 ft | 406 kts | 104° |
| 2026-04-24 02:15 | -21.04360 | -160.88772 | 18261 ft | 404 kts | 104° |
| 2026-04-24 02:15 | -21.04936 | -160.85831 | 17693 ft | 407 kts | 104° |
| 2026-04-24 02:15 | -21.05511 | -160.82883 | 17154 ft | 400 kts | 104° |
| 2026-04-24 02:15 | -21.06072 | -160.79992 | 16629 ft | 392 kts | 104° |
| 2026-04-24 02:16 | -21.06622 | -160.77167 | 16120 ft | 385 kts | 104° |
| 2026-04-24 02:16 | -21.07166 | -160.74381 | 15616 ft | 379 kts | 104° |
| 2026-04-24 02:16 | -21.07696 | -160.71657 | 15127 ft | 375 kts | 104° |
| 2026-04-24 02:16 | -21.08223 | -160.68940 | 14635 ft | 372 kts | 104° |
| 2026-04-24 02:17 | -21.08751 | -160.66227 | 14145 ft | 372 kts | 104° |
| 2026-04-24 02:17 | -21.09279 | -160.63507 | 13633 ft | 369 kts | 104° |
| 2026-04-24 02:17 | -21.09793 | -160.60842 | 13171 ft | 362 kts | 104° |
| 2026-04-24 02:17 | -21.10299 | -160.58227 | 12702 ft | 355 kts | 104° |
| 2026-04-24 02:18 | -21.10793 | -160.55683 | 12238 ft | 350 kts | 104° |
| 2026-04-24 02:18 | -21.11283 | -160.53146 | 11786 ft | 347 kts | 104° |
| 2026-04-24 02:18 | -21.11772 | -160.50616 | 11322 ft | 344 kts | 104° |
| 2026-04-24 02:18 | -21.12091 | -160.48958 | 11027 ft | 342 kts | 104° |
| 2026-04-24 02:19 | -21.12564 | -160.46501 | 10579 ft | 327 kts | 104° |
| 2026-04-24 02:19 | -21.13011 | -160.44173 | 10159 ft | 311 kts | 104° |
| 2026-04-24 02:19 | -21.13575 | -160.41254 | 9597 ft | 293 kts | 104° |
| 2026-04-24 02:19 | -21.13978 | -160.39159 | 9215 ft | 284 kts | 104° |
| 2026-04-24 02:20 | -21.14247 | -160.37763 | 8963 ft | 281 kts | 104° |
| 2026-04-24 02:20 | -21.14640 | -160.35720 | 8600 ft | 280 kts | 104° |
| 2026-04-24 02:20 | -21.15029 | -160.33697 | 8242 ft | 281 kts | 104° |
| 2026-04-24 02:20 | -21.15422 | -160.31648 | 7870 ft | 281 kts | 104° |
| 2026-04-24 02:21 | -21.15815 | -160.29602 | 7500 ft | 279 kts | 104° |
| 2026-04-24 02:21 | -21.16203 | -160.27574 | 7132 ft | 276 kts | 104° |
| 2026-04-24 02:21 | -21.16589 | -160.25558 | 6767 ft | 276 kts | 103° |
| 2026-04-24 02:21 | -21.16969 | -160.23572 | 6405 ft | 274 kts | 103° |
| 2026-04-24 02:22 | -21.17351 | -160.21575 | 6027 ft | 271 kts | 103° |
| 2026-04-24 02:22 | -21.17726 | -160.19609 | 5670 ft | 268 kts | 103° |
| 2026-04-24 02:22 | -21.18099 | -160.17658 | 5317 ft | 267 kts | 104° |
| 2026-04-24 02:22 | -21.18472 | -160.15708 | 4962 ft | 267 kts | 103° |
| 2026-04-24 02:23 | -21.18846 | -160.13746 | 4597 ft | 268 kts | 103° |
| 2026-04-24 02:23 | -21.19217 | -160.11795 | 4239 ft | 265 kts | 104° |
| 2026-04-24 02:23 | -21.19585 | -160.09866 | 3887 ft | 263 kts | 104° |
| 2026-04-24 02:23 | -21.19943 | -160.07982 | 3543 ft | 252 kts | 103° |
| 2026-04-24 02:24 | -21.20244 | -160.06164 | 3186 ft | 243 kts | 96° |
| 2026-04-24 02:24 | -21.20248 | -160.04402 | 2883 ft | 234 kts | 91° |
| 2026-04-24 02:24 | -21.20236 | -160.02686 | 2584 ft | 227 kts | 92° |
| 2026-04-24 02:24 | -21.20241 | -160.01014 | 2283 ft | 221 kts | 92° |
| 2026-04-24 02:25 | -21.20242 | -160.00795 | 2243 ft | 220 kts | 92° |
| 2026-04-24 02:26 | -21.20243 | -159.99398 | 2009 ft | 216 kts | 92° |
| 2026-04-24 02:26 | -21.20241 | -159.97929 | 1978 ft | 176 kts | 93° |
| 2026-04-24 02:26 | -21.20244 | -159.96708 | 1974 ft | 154 kts | 94° |
| 2026-04-24 02:27 | -21.20246 | -159.95620 | 1975 ft | 138 kts | 94° |
| 2026-04-24 02:27 | -21.20245 | -159.94674 | 1970 ft | 115 kts | 95° |
| 2026-04-24 02:27 | -21.20246 | -159.93851 | 1929 ft | 109 kts | 95° |
| 2026-04-24 02:27 | -21.20249 | -159.93034 | 1850 ft | 107 kts | 96° |
| 2026-04-24 02:28 | -21.20251 | -159.92244 | 1763 ft | 111 kts | 95° |
| 2026-04-24 02:28 | -21.20252 | -159.91408 | 1663 ft | 110 kts | 95° |
| 2026-04-24 02:28 | -21.20252 | -159.90582 | 1566 ft | 109 kts | 95° |
| 2026-04-24 02:28 | -21.20253 | -159.89788 | 1482 ft | 106 kts | 96° |
| 2026-04-24 02:29 | -21.20254 | -159.88992 | 1351 ft | 108 kts | 96° |
| 2026-04-24 02:29 | -21.20256 | -159.88162 | 1212 ft | 118 kts | 95° |
| 2026-04-24 02:29 | -21.20256 | -159.87284 | 1058 ft | 117 kts | 96° |
| 2026-04-24 02:29 | -21.20257 | -159.86422 | 918 ft | 116 kts | 98° |
| 2026-04-24 02:30 | -21.20258 | -159.85532 | 753 ft | 119 kts | 95° |
| 2026-04-24 02:30 | -21.20253 | -159.84669 | 577 ft | 118 kts | 95° |
| 2026-04-24 02:30 | -21.20251 | -159.83782 | 310 ft | 118 kts | 94° |
| 2026-04-24 02:30 | -21.20238 | -159.82932 | 174 ft | 110 kts | 93° |
| 2026-04-24 02:31 | -21.20243 | -159.82148 | 63 ft | 102 kts | 95° |
| 2026-04-24 02:31 | -21.20249 | -159.81424 | 21 ft | 89 kts | 91° |
| 2026-04-24 02:31 | -21.20249 | -159.80846 | 15 ft | 57 kts | 90° |
| 2026-04-24 02:31 | -21.20249 | -159.80543 | 12 ft | 34 kts | 91° |
| 2026-04-24 02:32 | -21.20256 | -159.80312 | 12 ft | 26 kts | 90° |
| 2026-04-24 02:32 | -21.20255 | -159.80126 | 12 ft | 24 kts | 90° |
| 2026-04-24 02:32 | -21.20257 | -159.79956 | 14 ft | 19 kts | 91° |
| 2026-04-24 02:32 | -21.20248 | -159.79846 | 14 ft | 14 kts | 60° |
| 2026-04-24 02:33 | -21.20165 | -159.79827 | 13 ft | 12 kts | 359° |
| 2026-04-24 02:33 | -21.20104 | -159.79811 | 13 ft | 6 kts | 20° |
| 2026-04-24 02:33 | -21.20067 | -159.79812 | 13 ft | 5 kts | 309° |
| 2026-04-24 02:33 | -21.20075 | -159.79838 | 13 ft | 3 kts | 210° |